sensor_id;sensor_type;location;lat;lon;timestamp;P1;durP1;ratioP1;P2;durP2;ratioP2
25111;SDS011;13092;51.996;4.458;2023-12-14T00:03:28;44.00;;;39.67;;
25111;SDS011;13092;51.996;4.458;2023-12-14T00:14:47;41.93;;;38.03;;
25111;SDS011;13092;51.996;4.458;2023-12-14T00:29:40;40.63;;;37.00;;
25111;SDS011;13092;51.996;4.458;2023-12-14T00:36:19;41.67;;;37.20;;
25111;SDS011;13092;51.996;4.458;2023-12-14T00:43:04;41.50;;;37.60;;
25111;SDS011;13092;51.996;4.458;2023-12-14T00:46:41;41.10;;;37.13;;
25111;SDS011;13092;51.996;4.458;2023-12-14T00:50:26;41.43;;;37.67;;
25111;SDS011;13092;51.996;4.458;2023-12-14T00:53:27;40.27;;;36.13;;
25111;SDS011;13092;51.996;4.458;2023-12-14T01:00:47;40.27;;;36.47;;
25111;SDS011;13092;51.996;4.458;2023-12-14T01:04:12;39.80;;;36.00;;
25111;SDS011;13092;51.996;4.458;2023-12-14T01:10:37;41.17;;;37.30;;
25111;SDS011;13092;51.996;4.458;2023-12-14T01:28:33;41.70;;;37.70;;
25111;SDS011;13092;51.996;4.458;2023-12-14T01:31:59;41.33;;;37.30;;
25111;SDS011;13092;51.996;4.458;2023-12-14T01:35:19;40.60;;;36.37;;
25111;SDS011;13092;51.996;4.458;2023-12-14T01:38:49;40.70;;;36.77;;
25111;SDS011;13092;51.996;4.458;2023-12-14T01:41:53;42.83;;;38.73;;
25111;SDS011;13092;51.996;4.458;2023-12-14T01:45:16;45.03;;;40.03;;
25111;SDS011;13092;51.996;4.458;2023-12-14T02:10:34;43.40;;;39.43;;
25111;SDS011;13092;51.996;4.458;2023-12-14T02:13:47;43.23;;;39.33;;
25111;SDS011;13092;51.996;4.458;2023-12-14T02:16:59;44.07;;;39.23;;
25111;SDS011;13092;51.996;4.458;2023-12-14T02:35:21;43.60;;;39.63;;
25111;SDS011;13092;51.996;4.458;2023-12-14T02:38:53;45.37;;;40.40;;
25111;SDS011;13092;51.996;4.458;2023-12-14T02:42:09;42.90;;;39.07;;
25111;SDS011;13092;51.996;4.458;2023-12-14T02:45:20;42.83;;;39.03;;
25111;SDS011;13092;51.996;4.458;2023-12-14T02:55:23;42.53;;;38.50;;
25111;SDS011;13092;51.996;4.458;2023-12-14T02:58:56;41.60;;;37.70;;
25111;SDS011;13092;51.996;4.458;2023-12-14T03:02:13;43.47;;;39.30;;
25111;SDS011;13092;51.996;4.458;2023-12-14T03:05:51;43.83;;;39.73;;
25111;SDS011;13092;51.996;4.458;2023-12-14T03:26:07;43.43;;;39.20;;
25111;SDS011;13092;51.996;4.458;2023-12-14T03:33:26;44.37;;;40.13;;
25111;SDS011;13092;51.996;4.458;2023-12-14T03:40:13;44.73;;;40.73;;
25111;SDS011;13092;51.996;4.458;2023-12-14T03:43:15;44.20;;;40.20;;
25111;SDS011;13092;51.996;4.458;2023-12-14T04:03:47;41.97;;;38.27;;
25111;SDS011;13092;51.996;4.458;2023-12-14T04:10:20;43.30;;;39.60;;
25111;SDS011;13092;51.996;4.458;2023-12-14T04:13:39;43.87;;;40.13;;
25111;SDS011;13092;51.996;4.458;2023-12-14T04:16:43;42.60;;;38.90;;
25111;SDS011;13092;51.996;4.458;2023-12-14T04:21:03;44.27;;;40.33;;
25111;SDS011;13092;51.996;4.458;2023-12-14T04:23:56;43.47;;;39.60;;
25111;SDS011;13092;51.996;4.458;2023-12-14T04:27:35;43.00;;;39.43;;
25111;SDS011;13092;51.996;4.458;2023-12-14T04:34:35;43.53;;;39.97;;
25111;SDS011;13092;51.996;4.458;2023-12-14T04:57:10;41.90;;;38.30;;
25111;SDS011;13092;51.996;4.458;2023-12-14T05:01:18;41.30;;;38.10;;
25111;SDS011;13092;51.996;4.458;2023-12-14T05:04:26;39.57;;;36.57;;
25111;SDS011;13092;51.996;4.458;2023-12-14T05:11:26;39.30;;;36.00;;
25111;SDS011;13092;51.996;4.458;2023-12-14T05:21:45;38.37;;;35.47;;
25111;SDS011;13092;51.996;4.458;2023-12-14T05:25:46;38.33;;;35.27;;
25111;SDS011;13092;51.996;4.458;2023-12-14T05:29:22;39.60;;;36.40;;
25111;SDS011;13092;51.996;4.458;2023-12-14T05:43:46;39.57;;;36.37;;
25111;SDS011;13092;51.996;4.458;2023-12-14T05:53:46;39.23;;;36.20;;
25111;SDS011;13092;51.996;4.458;2023-12-14T06:01:20;40.53;;;37.27;;
25111;SDS011;13092;51.996;4.458;2023-12-14T06:09:07;40.30;;;37.20;;
25111;SDS011;13092;51.996;4.458;2023-12-14T06:12:31;40.07;;;36.93;;
25111;SDS011;13092;51.996;4.458;2023-12-14T06:15:54;39.17;;;36.17;;
25111;SDS011;13092;51.996;4.458;2023-12-14T06:22:29;39.73;;;36.63;;
25111;SDS011;13092;51.996;4.458;2023-12-14T06:25:16;40.87;;;37.43;;
25111;SDS011;13092;51.996;4.458;2023-12-14T06:27:53;38.70;;;35.60;;
25111;SDS011;13092;51.996;4.458;2023-12-14T06:30:48;38.10;;;35.03;;
25111;SDS011;13092;51.996;4.458;2023-12-14T06:33:38;37.90;;;34.80;;
25111;SDS011;13092;51.996;4.458;2023-12-14T06:39:59;37.03;;;34.13;;
25111;SDS011;13092;51.996;4.458;2023-12-14T06:48:31;37.53;;;34.43;;
25111;SDS011;13092;51.996;4.458;2023-12-14T06:53:47;35.33;;;32.33;;
25111;SDS011;13092;51.996;4.458;2023-12-14T06:56:55;34.50;;;31.80;;
25111;SDS011;13092;51.996;4.458;2023-12-14T06:59:56;34.27;;;31.57;;
25111;SDS011;13092;51.996;4.458;2023-12-14T07:02:55;36.47;;;33.57;;
25111;SDS011;13092;51.996;4.458;2023-12-14T07:06:22;35.80;;;32.77;;
25111;SDS011;13092;51.996;4.458;2023-12-14T07:09:57;34.43;;;31.73;;
25111;SDS011;13092;51.996;4.458;2023-12-14T07:13:29;35.57;;;32.80;;
25111;SDS011;13092;51.996;4.458;2023-12-14T07:19:42;34.90;;;32.10;;
25111;SDS011;13092;51.996;4.458;2023-12-14T07:23:06;36.83;;;33.83;;
25111;SDS011;13092;51.996;4.458;2023-12-14T07:26:37;37.17;;;34.13;;
25111;SDS011;13092;51.996;4.458;2023-12-14T07:29:33;35.73;;;32.83;;
25111;SDS011;13092;51.996;4.458;2023-12-14T07:44:14;35.83;;;33.13;;
25111;SDS011;13092;51.996;4.458;2023-12-14T07:50:55;37.30;;;34.20;;
25111;SDS011;13092;51.996;4.458;2023-12-14T07:53:58;37.73;;;34.67;;
25111;SDS011;13092;51.996;4.458;2023-12-14T07:57:49;37.83;;;34.93;;
25111;SDS011;13092;51.996;4.458;2023-12-14T08:04:20;37.80;;;34.73;;
25111;SDS011;13092;51.996;4.458;2023-12-14T08:10:19;39.40;;;35.33;;
25111;SDS011;13092;51.996;4.458;2023-12-14T08:11:08;40.17;;;35.93;;
25111;SDS011;13092;51.996;4.458;2023-12-14T08:14:14;57.37;;;37.80;;
25111;SDS011;13092;51.996;4.458;2023-12-14T08:17:45;66.60;;;38.97;;
25111;SDS011;13092;51.996;4.458;2023-12-14T08:27:47;39.13;;;35.87;;
25111;SDS011;13092;51.996;4.458;2023-12-14T08:29:03;38.40;;;34.93;;
25111;SDS011;13092;51.996;4.458;2023-12-14T08:32:10;39.33;;;35.93;;
25111;SDS011;13092;51.996;4.458;2023-12-14T08:34:38;38.13;;;35.23;;
25111;SDS011;13092;51.996;4.458;2023-12-14T08:37:12;36.30;;;33.53;;
25111;SDS011;13092;51.996;4.458;2023-12-14T08:39:41;36.93;;;34.07;;
25111;SDS011;13092;51.996;4.458;2023-12-14T08:42:12;37.00;;;34.27;;
25111;SDS011;13092;51.996;4.458;2023-12-14T08:44:49;37.37;;;34.57;;
25111;SDS011;13092;51.996;4.458;2023-12-14T08:47:37;37.90;;;34.67;;
25111;SDS011;13092;51.996;4.458;2023-12-14T08:50:19;38.43;;;35.40;;
25111;SDS011;13092;51.996;4.458;2023-12-14T08:53:11;39.47;;;36.07;;
25111;SDS011;13092;51.996;4.458;2023-12-14T08:56:25;38.13;;;35.23;;
25111;SDS011;13092;51.996;4.458;2023-12-14T08:59:09;36.63;;;33.77;;
25111;SDS011;13092;51.996;4.458;2023-12-14T09:02:03;38.20;;;35.00;;
25111;SDS011;13092;51.996;4.458;2023-12-14T09:18:40;35.67;;;33.07;;
25111;SDS011;13092;51.996;4.458;2023-12-14T09:21:09;36.77;;;34.00;;
25111;SDS011;13092;51.996;4.458;2023-12-14T09:23:37;35.63;;;33.07;;
25111;SDS011;13092;51.996;4.458;2023-12-14T09:26:08;37.47;;;34.67;;
25111;SDS011;13092;51.996;4.458;2023-12-14T09:28:42;36.50;;;33.70;;
25111;SDS011;13092;51.996;4.458;2023-12-14T09:31:10;35.50;;;33.00;;
25111;SDS011;13092;51.996;4.458;2023-12-14T09:33:42;35.27;;;32.67;;
25111;SDS011;13092;51.996;4.458;2023-12-14T09:36:13;35.43;;;32.87;;
25111;SDS011;13092;51.996;4.458;2023-12-14T09:38:41;34.90;;;32.20;;
25111;SDS011;13092;51.996;4.458;2023-12-14T09:41:10;36.60;;;33.90;;
25111;SDS011;13092;51.996;4.458;2023-12-14T09:43:38;35.63;;;33.03;;
25111;SDS011;13092;51.996;4.458;2023-12-14T09:46:07;37.50;;;34.70;;
25111;SDS011;13092;51.996;4.458;2023-12-14T09:48:36;36.27;;;33.47;;
25111;SDS011;13092;51.996;4.458;2023-12-14T09:51:06;36.00;;;32.90;;
25111;SDS011;13092;51.996;4.458;2023-12-14T09:53:35;36.17;;;33.67;;
25111;SDS011;13092;51.996;4.458;2023-12-14T09:56:03;35.53;;;32.77;;
25111;SDS011;13092;51.996;4.458;2023-12-14T09:58:33;36.07;;;33.37;;
25111;SDS011;13092;51.996;4.458;2023-12-14T10:01:01;35.37;;;32.83;;
25111;SDS011;13092;51.996;4.458;2023-12-14T10:03:30;37.03;;;34.23;;
25111;SDS011;13092;51.996;4.458;2023-12-14T10:05:59;36.57;;;33.93;;
25111;SDS011;13092;51.996;4.458;2023-12-14T10:08:30;35.40;;;32.77;;
25111;SDS011;13092;51.996;4.458;2023-12-14T10:10:59;36.17;;;33.57;;
25111;SDS011;13092;51.996;4.458;2023-12-14T10:13:35;36.63;;;33.93;;
25111;SDS011;13092;51.996;4.458;2023-12-14T10:16:04;36.00;;;33.30;;
25111;SDS011;13092;51.996;4.458;2023-12-14T10:18:33;36.10;;;33.17;;
25111;SDS011;13092;51.996;4.458;2023-12-14T10:21:03;34.87;;;32.37;;
25111;SDS011;13092;51.996;4.458;2023-12-14T10:23:35;34.47;;;31.97;;
25111;SDS011;13092;51.996;4.458;2023-12-14T10:26:04;34.83;;;32.33;;
25111;SDS011;13092;51.996;4.458;2023-12-14T10:28:32;33.67;;;31.27;;
25111;SDS011;13092;51.996;4.458;2023-12-14T10:31:01;33.30;;;31.07;;
25111;SDS011;13092;51.996;4.458;2023-12-14T10:33:31;31.95;;;29.55;;
25111;SDS011;13092;51.996;4.458;2023-12-14T10:36:00;30.20;;;28.03;;
25111;SDS011;13092;51.996;4.458;2023-12-14T10:38:29;31.77;;;29.35;;
25111;SDS011;13092;51.996;4.458;2023-12-14T10:41:00;31.07;;;28.87;;
25111;SDS011;13092;51.996;4.458;2023-12-14T10:43:29;31.45;;;29.17;;
25111;SDS011;13092;51.996;4.458;2023-12-14T10:46:15;32.07;;;29.77;;
25111;SDS011;13092;51.996;4.458;2023-12-14T10:48:44;34.45;;;31.88;;
25111;SDS011;13092;51.996;4.458;2023-12-14T10:51:17;32.77;;;30.47;;
25111;SDS011;13092;51.996;4.458;2023-12-14T10:53:47;33.17;;;30.70;;
25111;SDS011;13092;51.996;4.458;2023-12-14T10:56:19;32.60;;;30.30;;
25111;SDS011;13092;51.996;4.458;2023-12-14T10:58:48;32.97;;;30.57;;
25111;SDS011;13092;51.996;4.458;2023-12-14T11:01:20;32.07;;;29.77;;
25111;SDS011;13092;51.996;4.458;2023-12-14T11:03:50;30.52;;;28.38;;
25111;SDS011;13092;51.996;4.458;2023-12-14T11:06:30;32.17;;;29.77;;
25111;SDS011;13092;51.996;4.458;2023-12-14T11:09:01;31.00;;;28.80;;
25111;SDS011;13092;51.996;4.458;2023-12-14T11:11:41;30.60;;;28.50;;
25111;SDS011;13092;51.996;4.458;2023-12-14T11:14:11;32.57;;;30.30;;
25111;SDS011;13092;51.996;4.458;2023-12-14T11:16:40;31.92;;;29.83;;
25111;SDS011;13092;51.996;4.458;2023-12-14T11:19:25;32.15;;;29.80;;
25111;SDS011;13092;51.996;4.458;2023-12-14T11:22:09;29.13;;;27.15;;
25111;SDS011;13092;51.996;4.458;2023-12-14T11:24:41;29.47;;;27.47;;
25111;SDS011;13092;51.996;4.458;2023-12-14T11:27:12;29.97;;;27.87;;
25111;SDS011;13092;51.996;4.458;2023-12-14T11:29:41;29.67;;;27.57;;
25111;SDS011;13092;51.996;4.458;2023-12-14T11:32:12;29.57;;;27.27;;
25111;SDS011;13092;51.996;4.458;2023-12-14T11:34:40;31.33;;;29.03;;
25111;SDS011;13092;51.996;4.458;2023-12-14T11:37:08;31.70;;;29.15;;
25111;SDS011;13092;51.996;4.458;2023-12-14T11:39:37;32.40;;;30.10;;
25111;SDS011;13092;51.996;4.458;2023-12-14T11:42:05;32.83;;;30.42;;
25111;SDS011;13092;51.996;4.458;2023-12-14T11:44:38;33.85;;;31.45;;
25111;SDS011;13092;51.996;4.458;2023-12-14T11:47:08;33.60;;;31.10;;
25111;SDS011;13092;51.996;4.458;2023-12-14T11:49:36;33.63;;;31.10;;
25111;SDS011;13092;51.996;4.458;2023-12-14T11:52:04;35.25;;;32.65;;
25111;SDS011;13092;51.996;4.458;2023-12-14T11:54:33;33.83;;;31.33;;
25111;SDS011;13092;51.996;4.458;2023-12-14T11:57:01;34.22;;;31.80;;
25111;SDS011;13092;51.996;4.458;2023-12-14T11:59:31;34.47;;;31.83;;
25111;SDS011;13092;51.996;4.458;2023-12-14T12:02:01;33.88;;;31.40;;
25111;SDS011;13092;51.996;4.458;2023-12-14T12:04:30;35.58;;;32.97;;
25111;SDS011;13092;51.996;4.458;2023-12-14T12:06:58;37.05;;;34.10;;
25111;SDS011;13092;51.996;4.458;2023-12-14T12:09:33;37.13;;;34.28;;
25111;SDS011;13092;51.996;4.458;2023-12-14T12:12:05;36.20;;;33.53;;
25111;SDS011;13092;51.996;4.458;2023-12-14T12:14:34;36.42;;;33.63;;
25111;SDS011;13092;51.996;4.458;2023-12-14T12:17:04;34.83;;;32.33;;
25111;SDS011;13092;51.996;4.458;2023-12-14T12:19:33;34.25;;;31.73;;
25111;SDS011;13092;51.996;4.458;2023-12-14T12:22:03;35.67;;;33.05;;
25111;SDS011;13092;51.996;4.458;2023-12-14T12:24:34;34.65;;;32.05;;
25111;SDS011;13092;51.996;4.458;2023-12-14T12:27:02;36.05;;;33.45;;
25111;SDS011;13092;51.996;4.458;2023-12-14T12:29:31;34.22;;;31.73;;
25111;SDS011;13092;51.996;4.458;2023-12-14T12:31:59;34.67;;;32.15;;
25111;SDS011;13092;51.996;4.458;2023-12-14T12:34:29;33.67;;;31.38;;
25111;SDS011;13092;51.996;4.458;2023-12-14T12:36:57;34.97;;;32.42;;
25111;SDS011;13092;51.996;4.458;2023-12-14T12:39:26;34.90;;;32.33;;
25111;SDS011;13092;51.996;4.458;2023-12-14T12:41:54;34.03;;;31.63;;
25111;SDS011;13092;51.996;4.458;2023-12-14T12:44:23;34.75;;;32.20;;
25111;SDS011;13092;51.996;4.458;2023-12-14T12:46:52;35.50;;;32.70;;
25111;SDS011;13092;51.996;4.458;2023-12-14T12:49:37;35.13;;;32.58;;
25111;SDS011;13092;51.996;4.458;2023-12-14T12:52:06;36.58;;;33.40;;
25111;SDS011;13092;51.996;4.458;2023-12-14T12:54:34;37.03;;;34.03;;
25111;SDS011;13092;51.996;4.458;2023-12-14T12:57:02;36.50;;;33.58;;
25111;SDS011;13092;51.996;4.458;2023-12-14T12:59:31;40.33;;;35.38;;
25111;SDS011;13092;51.996;4.458;2023-12-14T13:02:00;37.28;;;34.25;;
25111;SDS011;13092;51.996;4.458;2023-12-14T13:04:29;37.17;;;34.17;;
25111;SDS011;13092;51.996;4.458;2023-12-14T13:06:59;38.58;;;35.40;;
25111;SDS011;13092;51.996;4.458;2023-12-14T13:09:31;37.53;;;34.50;;
25111;SDS011;13092;51.996;4.458;2023-12-14T13:11:59;35.35;;;32.70;;
25111;SDS011;13092;51.996;4.458;2023-12-14T13:14:27;37.28;;;34.47;;
25111;SDS011;13092;51.996;4.458;2023-12-14T13:16:55;37.47;;;34.67;;
25111;SDS011;13092;51.996;4.458;2023-12-14T13:19:24;37.70;;;34.78;;
25111;SDS011;13092;51.996;4.458;2023-12-14T13:21:55;37.95;;;34.95;;
25111;SDS011;13092;51.996;4.458;2023-12-14T13:24:27;37.67;;;34.83;;
25111;SDS011;13092;51.996;4.458;2023-12-14T13:26:56;37.80;;;34.90;;
25111;SDS011;13092;51.996;4.458;2023-12-14T13:29:24;37.97;;;34.97;;
25111;SDS011;13092;51.996;4.458;2023-12-14T13:31:52;38.65;;;35.65;;
25111;SDS011;13092;51.996;4.458;2023-12-14T13:34:20;39.40;;;35.80;;
25111;SDS011;13092;51.996;4.458;2023-12-14T13:36:49;38.60;;;35.43;;
25111;SDS011;13092;51.996;4.458;2023-12-14T13:39:17;39.38;;;36.22;;
25111;SDS011;13092;51.996;4.458;2023-12-14T13:41:47;38.97;;;35.90;;
25111;SDS011;13092;51.996;4.458;2023-12-14T13:44:16;39.65;;;36.55;;
25111;SDS011;13092;51.996;4.458;2023-12-14T13:46:45;39.50;;;36.30;;
25111;SDS011;13092;51.996;4.458;2023-12-14T13:49:13;39.78;;;36.78;;
25111;SDS011;13092;51.996;4.458;2023-12-14T13:51:42;40.72;;;37.60;;
25111;SDS011;13092;51.996;4.458;2023-12-14T13:54:10;39.47;;;36.40;;
25111;SDS011;13092;51.996;4.458;2023-12-14T13:56:39;39.03;;;35.92;;
25111;SDS011;13092;51.996;4.458;2023-12-14T13:59:08;40.15;;;37.00;;
25111;SDS011;13092;51.996;4.458;2023-12-14T14:01:37;39.97;;;36.72;;
25111;SDS011;13092;51.996;4.458;2023-12-14T14:04:05;40.35;;;37.05;;
25111;SDS011;13092;51.996;4.458;2023-12-14T14:06:33;39.72;;;36.63;;
25111;SDS011;13092;51.996;4.458;2023-12-14T14:09:04;39.38;;;36.25;;
25111;SDS011;13092;51.996;4.458;2023-12-14T14:11:38;40.63;;;36.95;;
25111;SDS011;13092;51.996;4.458;2023-12-14T14:14:17;38.80;;;35.63;;
25111;SDS011;13092;51.996;4.458;2023-12-14T14:23:10;39.45;;;36.28;;
25111;SDS011;13092;51.996;4.458;2023-12-14T14:25:42;40.10;;;36.80;;
25111;SDS011;13092;51.996;4.458;2023-12-14T14:28:24;40.50;;;37.17;;
25111;SDS011;13092;51.996;4.458;2023-12-14T14:31:40;39.33;;;36.22;;
25111;SDS011;13092;51.996;4.458;2023-12-14T14:34:54;38.08;;;35.00;;
25111;SDS011;13092;51.996;4.458;2023-12-14T14:41:24;40.25;;;36.95;;
25111;SDS011;13092;51.996;4.458;2023-12-14T14:45:00;39.45;;;36.35;;
25111;SDS011;13092;51.996;4.458;2023-12-14T14:48:27;41.08;;;37.35;;
25111;SDS011;13092;51.996;4.458;2023-12-14T14:52:44;39.85;;;36.65;;
25111;SDS011;13092;51.996;4.458;2023-12-14T14:58:13;39.75;;;36.65;;
25111;SDS011;13092;51.996;4.458;2023-12-14T15:08:19;40.25;;;37.15;;
25111;SDS011;13092;51.996;4.458;2023-12-14T15:11:49;39.65;;;36.47;;
25111;SDS011;13092;51.996;4.458;2023-12-14T15:16:55;38.10;;;34.92;;
25111;SDS011;13092;51.996;4.458;2023-12-14T15:18:06;39.33;;;36.03;;
25111;SDS011;13092;51.996;4.458;2023-12-14T15:20:52;38.33;;;35.28;;
25111;SDS011;13092;51.996;4.458;2023-12-14T15:23:22;38.45;;;35.45;;
25111;SDS011;13092;51.996;4.458;2023-12-14T15:25:54;38.47;;;34.85;;
25111;SDS011;13092;51.996;4.458;2023-12-14T15:28:25;38.50;;;35.45;;
25111;SDS011;13092;51.996;4.458;2023-12-14T15:30:53;36.75;;;33.90;;
25111;SDS011;13092;51.996;4.458;2023-12-14T15:33:28;38.37;;;35.33;;
25111;SDS011;13092;51.996;4.458;2023-12-14T15:35:56;38.03;;;35.03;;
25111;SDS011;13092;51.996;4.458;2023-12-14T15:38:27;37.35;;;34.55;;
25111;SDS011;13092;51.996;4.458;2023-12-14T15:40:55;37.50;;;34.60;;
25111;SDS011;13092;51.996;4.458;2023-12-14T15:43:24;37.50;;;34.60;;
25111;SDS011;13092;51.996;4.458;2023-12-14T15:45:52;36.50;;;33.90;;
25111;SDS011;13092;51.996;4.458;2023-12-14T15:48:20;36.22;;;33.55;;
25111;SDS011;13092;51.996;4.458;2023-12-14T15:50:51;35.08;;;32.60;;
25111;SDS011;13092;51.996;4.458;2023-12-14T15:53:19;34.70;;;32.22;;
25111;SDS011;13092;51.996;4.458;2023-12-14T15:55:49;33.55;;;31.15;;
25111;SDS011;13092;51.996;4.458;2023-12-14T15:58:17;31.63;;;29.33;;
25111;SDS011;13092;51.996;4.458;2023-12-14T16:00:46;31.10;;;28.90;;
25111;SDS011;13092;51.996;4.458;2023-12-14T16:03:14;29.60;;;27.70;;
25111;SDS011;13092;51.996;4.458;2023-12-14T16:05:43;29.05;;;27.25;;
25111;SDS011;13092;51.996;4.458;2023-12-14T16:08:11;27.67;;;25.92;;
25111;SDS011;13092;51.996;4.458;2023-12-14T16:10:40;27.05;;;25.15;;
25111;SDS011;13092;51.996;4.458;2023-12-14T16:13:12;28.63;;;26.73;;
25111;SDS011;13092;51.996;4.458;2023-12-14T16:15:41;27.02;;;25.30;;
25111;SDS011;13092;51.996;4.458;2023-12-14T16:18:09;28.45;;;26.30;;
25111;SDS011;13092;51.996;4.458;2023-12-14T16:20:37;26.38;;;24.77;;
25111;SDS011;13092;51.996;4.458;2023-12-14T16:23:06;27.85;;;26.05;;
25111;SDS011;13092;51.996;4.458;2023-12-14T16:25:34;28.15;;;26.27;;
25111;SDS011;13092;51.996;4.458;2023-12-14T16:28:04;27.30;;;25.60;;
25111;SDS011;13092;51.996;4.458;2023-12-14T16:30:33;28.60;;;26.75;;
25111;SDS011;13092;51.996;4.458;2023-12-14T16:33:02;27.40;;;25.52;;
25111;SDS011;13092;51.996;4.458;2023-12-14T16:35:30;27.10;;;25.23;;
25111;SDS011;13092;51.996;4.458;2023-12-14T16:38:00;27.13;;;25.23;;
25111;SDS011;13092;51.996;4.458;2023-12-14T16:40:31;28.40;;;26.58;;
25111;SDS011;13092;51.996;4.458;2023-12-14T16:43:02;27.95;;;26.02;;
25111;SDS011;13092;51.996;4.458;2023-12-14T16:45:34;29.42;;;27.02;;
25111;SDS011;13092;51.996;4.458;2023-12-14T16:48:02;28.15;;;26.25;;
25111;SDS011;13092;51.996;4.458;2023-12-14T16:50:31;27.70;;;25.88;;
25111;SDS011;13092;51.996;4.458;2023-12-14T16:53:10;28.38;;;26.38;;
25111;SDS011;13092;51.996;4.458;2023-12-14T16:56:27;30.02;;;27.98;;
25111;SDS011;13092;51.996;4.458;2023-12-14T17:02:53;30.13;;;27.85;;
25111;SDS011;13092;51.996;4.458;2023-12-14T17:09:51;29.90;;;27.90;;
25111;SDS011;13092;51.996;4.458;2023-12-14T17:12:52;30.55;;;28.45;;
25111;SDS011;13092;51.996;4.458;2023-12-14T17:22:51;33.10;;;30.70;;
25111;SDS011;13092;51.996;4.458;2023-12-14T17:26:17;32.97;;;30.77;;
25111;SDS011;13092;51.996;4.458;2023-12-14T17:28:54;34.40;;;31.75;;
25111;SDS011;13092;51.996;4.458;2023-12-14T17:35:23;34.00;;;31.60;;
25111;SDS011;13092;51.996;4.458;2023-12-14T17:48:56;34.47;;;32.07;;
25111;SDS011;13092;51.996;4.458;2023-12-14T17:52:36;33.85;;;31.55;;
25111;SDS011;13092;51.996;4.458;2023-12-14T17:55:40;33.00;;;30.70;;
25111;SDS011;13092;51.996;4.458;2023-12-14T17:58:46;33.53;;;31.13;;
25111;SDS011;13092;51.996;4.458;2023-12-14T18:20:01;34.85;;;32.25;;
25111;SDS011;13092;51.996;4.458;2023-12-14T18:23:26;35.13;;;32.63;;
25111;SDS011;13092;51.996;4.458;2023-12-14T18:29:58;35.20;;;32.65;;
25111;SDS011;13092;51.996;4.458;2023-12-14T18:54:20;34.90;;;32.25;;
25111;SDS011;13092;51.996;4.458;2023-12-14T19:50:03;39.33;;;35.95;;
25111;SDS011;13092;51.996;4.458;2023-12-14T21:39:43;41.25;;;37.78;;
25111;SDS011;13092;51.996;4.458;2023-12-14T21:42:55;42.20;;;38.60;;
25111;SDS011;13092;51.996;4.458;2023-12-14T22:01:13;43.92;;;39.88;;
25111;SDS011;13092;51.996;4.458;2023-12-14T22:01:14;43.00;;;39.20;;
25111;SDS011;13092;51.996;4.458;2023-12-14T22:04:18;44.22;;;40.17;;
25111;SDS011;13092;51.996;4.458;2023-12-14T22:41:08;44.88;;;40.70;;
25111;SDS011;13092;51.996;4.458;2023-12-14T22:51:29;45.53;;;40.33;;
25111;SDS011;13092;51.996;4.458;2023-12-14T22:54:49;44.78;;;40.42;;
25111;SDS011;13092;51.996;4.458;2023-12-14T22:57:57;52.63;;;40.60;;
25111;SDS011;13092;51.996;4.458;2023-12-14T23:02:01;46.72;;;41.83;;
25111;SDS011;13092;51.996;4.458;2023-12-14T23:09:12;47.00;;;42.45;;
25111;SDS011;13092;51.996;4.458;2023-12-14T23:34:51;44.90;;;40.10;;
25111;SDS011;13092;51.996;4.458;2023-12-14T23:38:21;44.22;;;39.83;;
25111;SDS011;13092;51.996;4.458;2023-12-14T23:48:22;43.40;;;39.00;;
25111;SDS011;13092;51.996;4.458;2023-12-14T23:55:23;44.17;;;39.85;;
